Terminal Aerodrome Forecast
Issued by NWS

Home | Current Version | Previous Version | Text Only | Print | Product List | Glossary On
Versions: 1 2 3 4 5 6 7 8 9 10 11 12 13 14 15
548
FTUS45 KTFX 241730
TAFGTF
TAF
KGTF 241730Z 2418/2518 VRB06KT P6SM SCT030 BKN040
     FM242200 24009KT P6SM VCSH SCT040 BKN070
      TEMPO 2422/2502 -SHRA OVC030
     FM250300 21005KT P6SM BKN080=

USA.gov is the U.S. government's official web portal to all federal, state and local government web resources and services.